sensor_id;sensor_type;location;lat;lon;timestamp;P1;durP1;ratioP1;P2;durP2;ratioP2
69837;SDS011;57135;51.992;4.476;2022-09-09T00:00:23;7.01;;;6.96;;
69837;SDS011;57135;51.992;4.476;2022-09-09T00:03:11;7.37;;;7.31;;
69837;SDS011;57135;51.992;4.476;2022-09-09T00:08:54;7.61;;;7.60;;
69837;SDS011;57135;51.992;4.476;2022-09-09T00:11:39;7.55;;;7.50;;
69837;SDS011;57135;51.992;4.476;2022-09-09T00:16:53;7.96;;;7.92;;
69837;SDS011;57135;51.992;4.476;2022-09-09T00:24:41;8.17;;;8.12;;
69837;SDS011;57135;51.992;4.476;2022-09-09T00:29:51;8.54;;;8.52;;
69837;SDS011;57135;51.992;4.476;2022-09-09T00:32:19;8.91;;;8.88;;
69837;SDS011;57135;51.992;4.476;2022-09-09T00:34:51;9.22;;;9.11;;
69837;SDS011;57135;51.992;4.476;2022-09-09T00:37:20;9.48;;;9.43;;
69837;SDS011;57135;51.992;4.476;2022-09-09T00:39:48;9.38;;;9.27;;
69837;SDS011;57135;51.992;4.476;2022-09-09T00:42:18;10.05;;;9.98;;
69837;SDS011;57135;51.992;4.476;2022-09-09T00:49:49;10.25;;;10.14;;
69837;SDS011;57135;51.992;4.476;2022-09-09T00:55:21;9.09;;;9.08;;
69837;SDS011;57135;51.992;4.476;2022-09-09T00:57:57;9.54;;;9.42;;
69837;SDS011;57135;51.992;4.476;2022-09-09T01:00:27;9.34;;;9.27;;
69837;SDS011;57135;51.992;4.476;2022-09-09T01:08:35;8.71;;;8.58;;
69837;SDS011;57135;51.992;4.476;2022-09-09T01:11:01;8.12;;;8.06;;
69837;SDS011;57135;51.992;4.476;2022-09-09T01:13:34;7.65;;;7.60;;
69837;SDS011;57135;51.992;4.476;2022-09-09T01:16:01;7.70;;;7.61;;
69837;SDS011;57135;51.992;4.476;2022-09-09T01:18:29;7.35;;;7.24;;
69837;SDS011;57135;51.992;4.476;2022-09-09T01:23:53;6.89;;;6.86;;
69837;SDS011;57135;51.992;4.476;2022-09-09T01:26:42;6.61;;;6.53;;
69837;SDS011;57135;51.992;4.476;2022-09-09T01:29:09;5.86;;;5.80;;
69837;SDS011;57135;51.992;4.476;2022-09-09T01:31:39;5.82;;;5.80;;
69837;SDS011;57135;51.992;4.476;2022-09-09T01:34:17;5.62;;;5.58;;
69837;SDS011;57135;51.992;4.476;2022-09-09T01:36:44;5.16;;;5.13;;
69837;SDS011;57135;51.992;4.476;2022-09-09T01:39:21;5.32;;;5.30;;
69837;SDS011;57135;51.992;4.476;2022-09-09T01:41:47;5.21;;;5.17;;
69837;SDS011;57135;51.992;4.476;2022-09-09T01:44:12;5.11;;;5.09;;
69837;SDS011;57135;51.992;4.476;2022-09-09T01:46:38;4.74;;;4.72;;
69837;SDS011;57135;51.992;4.476;2022-09-09T01:49:05;4.53;;;4.51;;
69837;SDS011;57135;51.992;4.476;2022-09-09T01:51:32;4.48;;;4.48;;
69837;SDS011;57135;51.992;4.476;2022-09-09T01:53:59;4.45;;;4.42;;
69837;SDS011;57135;51.992;4.476;2022-09-09T01:56:47;4.17;;;4.14;;
69837;SDS011;57135;51.992;4.476;2022-09-09T02:04:39;3.64;;;3.58;;
69837;SDS011;57135;51.992;4.476;2022-09-09T02:07:31;3.41;;;3.36;;
69837;SDS011;57135;51.992;4.476;2022-09-09T02:12:49;3.43;;;3.37;;
69837;SDS011;57135;51.992;4.476;2022-09-09T02:15:30;3.07;;;3.00;;
69837;SDS011;57135;51.992;4.476;2022-09-09T02:18:06;3.00;;;2.95;;
69837;SDS011;57135;51.992;4.476;2022-09-09T02:20:36;2.78;;;2.75;;
69837;SDS011;57135;51.992;4.476;2022-09-09T02:23:03;2.71;;;2.64;;
69837;SDS011;57135;51.992;4.476;2022-09-09T02:25:33;2.58;;;2.49;;
69837;SDS011;57135;51.992;4.476;2022-09-09T02:28:02;2.54;;;2.47;;
69837;SDS011;57135;51.992;4.476;2022-09-09T02:30:32;2.64;;;2.55;;
69837;SDS011;57135;51.992;4.476;2022-09-09T02:33:00;3.00;;;2.89;;
69837;SDS011;57135;51.992;4.476;2022-09-09T02:35:31;3.03;;;2.89;;
69837;SDS011;57135;51.992;4.476;2022-09-09T02:37:59;3.06;;;2.92;;
69837;SDS011;57135;51.992;4.476;2022-09-09T02:40:29;3.33;;;3.18;;
69837;SDS011;57135;51.992;4.476;2022-09-09T02:42:55;3.29;;;3.15;;
69837;SDS011;57135;51.992;4.476;2022-09-09T02:45:23;3.55;;;3.41;;
69837;SDS011;57135;51.992;4.476;2022-09-09T02:48:38;3.71;;;3.53;;
69837;SDS011;57135;51.992;4.476;2022-09-09T02:55:46;3.43;;;3.41;;
69837;SDS011;57135;51.992;4.476;2022-09-09T02:58:16;3.72;;;3.68;;
69837;SDS011;57135;51.992;4.476;2022-09-09T03:00:43;3.80;;;3.74;;
69837;SDS011;57135;51.992;4.476;2022-09-09T03:03:11;3.99;;;3.92;;
69837;SDS011;57135;51.992;4.476;2022-09-09T03:05:36;4.38;;;4.31;;
69837;SDS011;57135;51.992;4.476;2022-09-09T03:08:02;4.44;;;4.40;;
69837;SDS011;57135;51.992;4.476;2022-09-09T03:10:28;4.52;;;4.44;;
69837;SDS011;57135;51.992;4.476;2022-09-09T03:12:54;4.54;;;4.47;;
69837;SDS011;57135;51.992;4.476;2022-09-09T03:15:20;5.13;;;5.06;;
69837;SDS011;57135;51.992;4.476;2022-09-09T03:17:46;5.03;;;4.87;;
69837;SDS011;57135;51.992;4.476;2022-09-09T03:20:12;5.35;;;5.13;;
69837;SDS011;57135;51.992;4.476;2022-09-09T03:22:37;4.97;;;4.78;;
69837;SDS011;57135;51.992;4.476;2022-09-09T03:25:03;4.83;;;4.63;;
69837;SDS011;57135;51.992;4.476;2022-09-09T03:27:28;4.71;;;4.58;;
69837;SDS011;57135;51.992;4.476;2022-09-09T03:29:54;4.25;;;4.13;;
69837;SDS011;57135;51.992;4.476;2022-09-09T03:32:21;4.31;;;4.23;;
69837;SDS011;57135;51.992;4.476;2022-09-09T03:34:47;4.33;;;4.20;;
69837;SDS011;57135;51.992;4.476;2022-09-09T03:37:15;4.15;;;4.04;;
69837;SDS011;57135;51.992;4.476;2022-09-09T03:39:42;4.27;;;4.10;;
69837;SDS011;57135;51.992;4.476;2022-09-09T03:42:08;4.30;;;4.07;;
69837;SDS011;57135;51.992;4.476;2022-09-09T03:44:35;4.25;;;3.99;;
69837;SDS011;57135;51.992;4.476;2022-09-09T03:47:00;4.25;;;4.05;;
69837;SDS011;57135;51.992;4.476;2022-09-09T03:49:26;4.17;;;3.95;;
69837;SDS011;57135;51.992;4.476;2022-09-09T03:51:54;4.42;;;4.15;;
69837;SDS011;57135;51.992;4.476;2022-09-09T03:54:22;4.45;;;4.12;;
69837;SDS011;57135;51.992;4.476;2022-09-09T03:56:48;4.40;;;4.10;;
69837;SDS011;57135;51.992;4.476;2022-09-09T03:59:14;4.11;;;3.88;;
69837;SDS011;57135;51.992;4.476;2022-09-09T04:01:39;4.04;;;3.78;;
69837;SDS011;57135;51.992;4.476;2022-09-09T04:04:05;3.86;;;3.54;;
69837;SDS011;57135;51.992;4.476;2022-09-09T04:06:30;4.17;;;3.85;;
69837;SDS011;57135;51.992;4.476;2022-09-09T04:08:56;3.60;;;3.35;;
69837;SDS011;57135;51.992;4.476;2022-09-09T04:11:22;3.74;;;3.43;;
69837;SDS011;57135;51.992;4.476;2022-09-09T04:13:47;3.58;;;3.30;;
69837;SDS011;57135;51.992;4.476;2022-09-09T04:16:14;3.91;;;3.59;;
69837;SDS011;57135;51.992;4.476;2022-09-09T04:18:40;3.93;;;3.57;;
69837;SDS011;57135;51.992;4.476;2022-09-09T04:21:06;3.62;;;3.29;;
69837;SDS011;57135;51.992;4.476;2022-09-09T04:23:32;3.43;;;3.23;;
69837;SDS011;57135;51.992;4.476;2022-09-09T04:25:59;3.49;;;3.32;;
69837;SDS011;57135;51.992;4.476;2022-09-09T04:28:26;3.67;;;3.41;;
69837;SDS011;57135;51.992;4.476;2022-09-09T04:30:54;3.49;;;3.29;;
69837;SDS011;57135;51.992;4.476;2022-09-09T04:33:23;3.48;;;3.35;;
69837;SDS011;57135;51.992;4.476;2022-09-09T04:35:51;3.40;;;3.26;;
69837;SDS011;57135;51.992;4.476;2022-09-09T04:38:18;3.37;;;3.22;;
69837;SDS011;57135;51.992;4.476;2022-09-09T04:40:46;3.55;;;3.42;;
69837;SDS011;57135;51.992;4.476;2022-09-09T04:43:12;3.48;;;3.29;;
69837;SDS011;57135;51.992;4.476;2022-09-09T04:45:39;3.53;;;3.34;;
69837;SDS011;57135;51.992;4.476;2022-09-09T04:48:05;3.36;;;3.17;;
69837;SDS011;57135;51.992;4.476;2022-09-09T04:50:31;3.17;;;3.00;;
69837;SDS011;57135;51.992;4.476;2022-09-09T04:52:59;3.70;;;3.54;;
69837;SDS011;57135;51.992;4.476;2022-09-09T04:55:25;3.51;;;3.33;;
69837;SDS011;57135;51.992;4.476;2022-09-09T04:57:51;3.75;;;3.52;;
69837;SDS011;57135;51.992;4.476;2022-09-09T05:00:16;3.62;;;3.34;;
69837;SDS011;57135;51.992;4.476;2022-09-09T05:02:43;3.94;;;3.69;;
69837;SDS011;57135;51.992;4.476;2022-09-09T05:05:09;3.84;;;3.67;;
69837;SDS011;57135;51.992;4.476;2022-09-09T05:07:36;4.06;;;3.89;;
69837;SDS011;57135;51.992;4.476;2022-09-09T05:10:02;4.06;;;3.90;;
69837;SDS011;57135;51.992;4.476;2022-09-09T05:12:30;3.94;;;3.78;;
69837;SDS011;57135;51.992;4.476;2022-09-09T05:14:56;4.32;;;4.07;;
69837;SDS011;57135;51.992;4.476;2022-09-09T05:17:21;4.22;;;3.94;;
69837;SDS011;57135;51.992;4.476;2022-09-09T05:19:47;4.18;;;3.96;;
69837;SDS011;57135;51.992;4.476;2022-09-09T05:22:17;4.16;;;3.97;;
69837;SDS011;57135;51.992;4.476;2022-09-09T05:24:44;4.07;;;3.89;;
69837;SDS011;57135;51.992;4.476;2022-09-09T05:27:09;4.00;;;3.81;;
69837;SDS011;57135;51.992;4.476;2022-09-09T05:29:37;3.90;;;3.75;;
69837;SDS011;57135;51.992;4.476;2022-09-09T05:32:03;4.38;;;4.11;;
69837;SDS011;57135;51.992;4.476;2022-09-09T05:34:28;4.20;;;3.88;;
69837;SDS011;57135;51.992;4.476;2022-09-09T05:36:54;4.10;;;3.86;;
69837;SDS011;57135;51.992;4.476;2022-09-09T05:39:20;4.09;;;3.85;;
69837;SDS011;57135;51.992;4.476;2022-09-09T05:41:45;4.07;;;3.80;;
69837;SDS011;57135;51.992;4.476;2022-09-09T05:44:10;4.30;;;4.05;;
69837;SDS011;57135;51.992;4.476;2022-09-09T05:46:36;4.13;;;3.94;;
69837;SDS011;57135;51.992;4.476;2022-09-09T05:49:02;3.79;;;3.66;;
69837;SDS011;57135;51.992;4.476;2022-09-09T05:51:30;4.13;;;3.97;;
69837;SDS011;57135;51.992;4.476;2022-09-09T05:53:56;4.37;;;4.02;;
69837;SDS011;57135;51.992;4.476;2022-09-09T05:56:24;4.57;;;4.24;;
69837;SDS011;57135;51.992;4.476;2022-09-09T05:58:51;3.92;;;3.62;;
69837;SDS011;57135;51.992;4.476;2022-09-09T06:01:22;4.31;;;3.88;;
69837;SDS011;57135;51.992;4.476;2022-09-09T06:03:52;4.50;;;4.06;;
69837;SDS011;57135;51.992;4.476;2022-09-09T06:06:19;4.53;;;4.06;;
69837;SDS011;57135;51.992;4.476;2022-09-09T06:08:51;4.16;;;3.76;;
69837;SDS011;57135;51.992;4.476;2022-09-09T06:11:27;3.96;;;3.65;;
69837;SDS011;57135;51.992;4.476;2022-09-09T06:13:57;4.22;;;3.89;;
69837;SDS011;57135;51.992;4.476;2022-09-09T06:16:24;4.34;;;3.91;;
69837;SDS011;57135;51.992;4.476;2022-09-09T06:18:54;4.43;;;3.94;;
69837;SDS011;57135;51.992;4.476;2022-09-09T06:21:22;4.54;;;4.09;;
69837;SDS011;57135;51.992;4.476;2022-09-09T06:23:49;4.36;;;3.96;;
69837;SDS011;57135;51.992;4.476;2022-09-09T06:28:47;4.47;;;4.12;;
69837;SDS011;57135;51.992;4.476;2022-09-09T06:31:15;4.11;;;3.82;;
69837;SDS011;57135;51.992;4.476;2022-09-09T06:33:42;4.44;;;4.06;;
69837;SDS011;57135;51.992;4.476;2022-09-09T06:36:10;4.33;;;3.99;;
69837;SDS011;57135;51.992;4.476;2022-09-09T06:38:40;4.57;;;4.29;;
69837;SDS011;57135;51.992;4.476;2022-09-09T06:41:07;4.56;;;4.30;;
69837;SDS011;57135;51.992;4.476;2022-09-09T06:43:34;4.57;;;4.36;;
69837;SDS011;57135;51.992;4.476;2022-09-09T06:46:04;4.82;;;4.49;;
69837;SDS011;57135;51.992;4.476;2022-09-09T06:48:34;4.68;;;4.39;;
69837;SDS011;57135;51.992;4.476;2022-09-09T06:53:28;4.90;;;4.69;;
69837;SDS011;57135;51.992;4.476;2022-09-09T06:55:53;4.31;;;4.25;;
69837;SDS011;57135;51.992;4.476;2022-09-09T06:58:19;4.56;;;4.43;;
69837;SDS011;57135;51.992;4.476;2022-09-09T07:00:47;5.08;;;4.84;;
69837;SDS011;57135;51.992;4.476;2022-09-09T07:03:13;4.89;;;4.80;;
69837;SDS011;57135;51.992;4.476;2022-09-09T07:05:38;4.94;;;4.94;;
69837;SDS011;57135;51.992;4.476;2022-09-09T07:08:04;5.08;;;5.08;;
69837;SDS011;57135;51.992;4.476;2022-09-09T07:10:30;5.14;;;5.14;;
69837;SDS011;57135;51.992;4.476;2022-09-09T07:12:56;5.27;;;5.27;;
69837;SDS011;57135;51.992;4.476;2022-09-09T07:15:22;5.47;;;5.46;;
69837;SDS011;57135;51.992;4.476;2022-09-09T07:17:48;5.35;;;5.35;;
69837;SDS011;57135;51.992;4.476;2022-09-09T07:20:14;5.52;;;5.52;;
69837;SDS011;57135;51.992;4.476;2022-09-09T07:22:40;5.77;;;5.77;;
69837;SDS011;57135;51.992;4.476;2022-09-09T07:25:06;5.76;;;5.76;;
69837;SDS011;57135;51.992;4.476;2022-09-09T07:27:32;5.78;;;5.78;;
69837;SDS011;57135;51.992;4.476;2022-09-09T07:29:57;5.93;;;5.93;;
69837;SDS011;57135;51.992;4.476;2022-09-09T07:32:23;5.62;;;5.62;;
69837;SDS011;57135;51.992;4.476;2022-09-09T07:34:50;6.16;;;6.16;;
69837;SDS011;57135;51.992;4.476;2022-09-09T07:37:16;6.18;;;6.18;;
69837;SDS011;57135;51.992;4.476;2022-09-09T07:39:42;6.21;;;6.21;;
69837;SDS011;57135;51.992;4.476;2022-09-09T07:42:09;6.17;;;6.17;;
69837;SDS011;57135;51.992;4.476;2022-09-09T07:44:36;6.29;;;6.29;;
69837;SDS011;57135;51.992;4.476;2022-09-09T07:47:04;6.28;;;6.28;;
69837;SDS011;57135;51.992;4.476;2022-09-09T07:49:30;5.52;;;5.52;;
69837;SDS011;57135;51.992;4.476;2022-09-09T07:51:56;5.40;;;5.40;;
69837;SDS011;57135;51.992;4.476;2022-09-09T07:54:22;5.38;;;5.38;;
69837;SDS011;57135;51.992;4.476;2022-09-09T07:56:48;5.18;;;5.18;;
69837;SDS011;57135;51.992;4.476;2022-09-09T07:59:15;5.10;;;5.10;;
69837;SDS011;57135;51.992;4.476;2022-09-09T08:01:45;4.91;;;4.91;;
69837;SDS011;57135;51.992;4.476;2022-09-09T08:04:14;4.69;;;4.69;;
69837;SDS011;57135;51.992;4.476;2022-09-09T08:06:44;4.94;;;4.94;;
69837;SDS011;57135;51.992;4.476;2022-09-09T08:09:11;4.37;;;4.37;;
69837;SDS011;57135;51.992;4.476;2022-09-09T08:11:37;4.60;;;4.60;;
69837;SDS011;57135;51.992;4.476;2022-09-09T08:14:04;4.28;;;4.28;;
69837;SDS011;57135;51.992;4.476;2022-09-09T08:16:33;4.67;;;4.67;;
69837;SDS011;57135;51.992;4.476;2022-09-09T08:19:02;4.67;;;4.67;;
69837;SDS011;57135;51.992;4.476;2022-09-09T08:21:29;4.50;;;4.50;;
69837;SDS011;57135;51.992;4.476;2022-09-09T08:23:57;4.55;;;4.55;;
69837;SDS011;57135;51.992;4.476;2022-09-09T08:26:28;4.92;;;4.86;;
69837;SDS011;57135;51.992;4.476;2022-09-09T08:28:56;7.23;;;6.60;;
69837;SDS011;57135;51.992;4.476;2022-09-09T08:31:24;5.36;;;5.01;;
69837;SDS011;57135;51.992;4.476;2022-09-09T08:33:53;4.53;;;4.46;;
69837;SDS011;57135;51.992;4.476;2022-09-09T08:36:19;4.53;;;4.53;;
69837;SDS011;57135;51.992;4.476;2022-09-09T08:38:47;4.48;;;4.48;;
69837;SDS011;57135;51.992;4.476;2022-09-09T08:46:38;4.84;;;4.84;;
69837;SDS011;57135;51.992;4.476;2022-09-09T08:49:29;4.96;;;4.96;;
69837;SDS011;57135;51.992;4.476;2022-09-09T08:52:32;5.05;;;5.05;;
69837;SDS011;57135;51.992;4.476;2022-09-09T08:58:04;5.04;;;5.04;;
69837;SDS011;57135;51.992;4.476;2022-09-09T09:00:43;4.80;;;4.80;;
69837;SDS011;57135;51.992;4.476;2022-09-09T09:03:38;4.94;;;4.94;;
69837;SDS011;57135;51.992;4.476;2022-09-09T09:11:54;4.58;;;4.58;;
69837;SDS011;57135;51.992;4.476;2022-09-09T09:14:30;4.65;;;4.65;;
69837;SDS011;57135;51.992;4.476;2022-09-09T09:17:06;4.51;;;4.51;;
69837;SDS011;57135;51.992;4.476;2022-09-09T09:19:38;4.33;;;4.33;;
69837;SDS011;57135;51.992;4.476;2022-09-09T09:22:26;4.74;;;4.74;;
69837;SDS011;57135;51.992;4.476;2022-09-09T09:30:15;4.25;;;4.25;;
69837;SDS011;57135;51.992;4.476;2022-09-09T09:32:48;4.62;;;4.58;;
69837;SDS011;57135;51.992;4.476;2022-09-09T09:35:18;4.80;;;4.80;;
69837;SDS011;57135;51.992;4.476;2022-09-09T09:37:44;4.95;;;4.95;;
69837;SDS011;57135;51.992;4.476;2022-09-09T09:40:14;4.98;;;4.98;;
69837;SDS011;57135;51.992;4.476;2022-09-09T09:42:48;5.04;;;5.04;;
69837;SDS011;57135;51.992;4.476;2022-09-09T09:47:58;5.27;;;5.27;;
69837;SDS011;57135;51.992;4.476;2022-09-09T09:50:24;5.12;;;5.12;;
69837;SDS011;57135;51.992;4.476;2022-09-09T09:52:53;5.20;;;5.20;;
69837;SDS011;57135;51.992;4.476;2022-09-09T09:55:25;5.17;;;5.17;;
69837;SDS011;57135;51.992;4.476;2022-09-09T09:57:51;5.16;;;5.16;;
69837;SDS011;57135;51.992;4.476;2022-09-09T10:00:22;5.34;;;5.34;;
69837;SDS011;57135;51.992;4.476;2022-09-09T10:02:48;5.32;;;5.32;;
69837;SDS011;57135;51.992;4.476;2022-09-09T10:07:42;5.23;;;5.22;;
69837;SDS011;57135;51.992;4.476;2022-09-09T10:10:13;5.28;;;5.20;;
69837;SDS011;57135;51.992;4.476;2022-09-09T10:12:54;5.43;;;5.36;;
69837;SDS011;57135;51.992;4.476;2022-09-09T10:18:42;5.03;;;5.03;;
69837;SDS011;57135;51.992;4.476;2022-09-09T10:27:20;4.98;;;4.83;;
69837;SDS011;57135;51.992;4.476;2022-09-09T10:32:45;5.10;;;5.10;;
69837;SDS011;57135;51.992;4.476;2022-09-09T10:35:35;4.96;;;4.96;;
69837;SDS011;57135;51.992;4.476;2022-09-09T10:46:08;4.33;;;4.33;;
69837;SDS011;57135;51.992;4.476;2022-09-09T10:48:46;4.23;;;4.23;;
69837;SDS011;57135;51.992;4.476;2022-09-09T10:56:55;3.61;;;3.61;;
69837;SDS011;57135;51.992;4.476;2022-09-09T10:59:25;3.57;;;3.57;;
69837;SDS011;57135;51.992;4.476;2022-09-09T11:04:35;3.48;;;3.48;;
69837;SDS011;57135;51.992;4.476;2022-09-09T11:07:42;3.50;;;3.50;;
69837;SDS011;57135;51.992;4.476;2022-09-09T11:10:26;3.57;;;3.57;;
69837;SDS011;57135;51.992;4.476;2022-09-09T11:12:59;3.51;;;3.51;;
69837;SDS011;57135;51.992;4.476;2022-09-09T11:15:51;3.57;;;3.57;;
69837;SDS011;57135;51.992;4.476;2022-09-09T11:18:19;4.13;;;4.13;;
69837;SDS011;57135;51.992;4.476;2022-09-09T11:20:48;4.00;;;4.00;;
69837;SDS011;57135;51.992;4.476;2022-09-09T11:23:20;3.86;;;3.86;;
69837;SDS011;57135;51.992;4.476;2022-09-09T11:25:56;3.57;;;3.57;;
69837;SDS011;57135;51.992;4.476;2022-09-09T11:28:52;3.98;;;3.98;;
69837;SDS011;57135;51.992;4.476;2022-09-09T11:31:50;4.24;;;4.24;;
69837;SDS011;57135;51.992;4.476;2022-09-09T11:42:46;4.25;;;4.25;;
69837;SDS011;57135;51.992;4.476;2022-09-09T11:45:22;4.59;;;4.59;;
69837;SDS011;57135;51.992;4.476;2022-09-09T11:47:55;4.48;;;4.48;;
69837;SDS011;57135;51.992;4.476;2022-09-09T11:52:50;4.54;;;4.54;;
69837;SDS011;57135;51.992;4.476;2022-09-09T11:58:01;4.73;;;4.73;;
69837;SDS011;57135;51.992;4.476;2022-09-09T12:00:37;5.07;;;5.07;;
69837;SDS011;57135;51.992;4.476;2022-09-09T12:03:31;4.59;;;4.59;;
69837;SDS011;57135;51.992;4.476;2022-09-09T12:06:09;5.09;;;5.09;;
69837;SDS011;57135;51.992;4.476;2022-09-09T12:08:39;5.55;;;5.55;;
69837;SDS011;57135;51.992;4.476;2022-09-09T12:11:08;5.44;;;5.44;;
69837;SDS011;57135;51.992;4.476;2022-09-09T12:13:34;5.29;;;5.29;;
69837;SDS011;57135;51.992;4.476;2022-09-09T12:16:00;5.47;;;5.47;;
69837;SDS011;57135;51.992;4.476;2022-09-09T12:18:37;5.03;;;5.03;;
69837;SDS011;57135;51.992;4.476;2022-09-09T12:21:15;5.22;;;5.22;;
69837;SDS011;57135;51.992;4.476;2022-09-09T12:23:51;4.83;;;4.83;;
69837;SDS011;57135;51.992;4.476;2022-09-09T12:34:27;4.43;;;4.43;;
69837;SDS011;57135;51.992;4.476;2022-09-09T12:37:15;4.90;;;4.90;;
69837;SDS011;57135;51.992;4.476;2022-09-09T12:39:49;5.05;;;5.05;;
69837;SDS011;57135;51.992;4.476;2022-09-09T12:42:23;5.25;;;5.25;;
69837;SDS011;57135;51.992;4.476;2022-09-09T12:50:14;5.01;;;5.01;;
69837;SDS011;57135;51.992;4.476;2022-09-09T12:52:42;5.69;;;5.69;;
69837;SDS011;57135;51.992;4.476;2022-09-09T12:55:16;5.06;;;5.06;;
69837;SDS011;57135;51.992;4.476;2022-09-09T12:57:46;5.16;;;5.16;;
69837;SDS011;57135;51.992;4.476;2022-09-09T13:00:16;5.28;;;5.28;;
69837;SDS011;57135;51.992;4.476;2022-09-09T13:02:50;5.83;;;5.83;;
69837;SDS011;57135;51.992;4.476;2022-09-09T13:05:21;5.15;;;5.15;;
69837;SDS011;57135;51.992;4.476;2022-09-09T13:07:48;5.20;;;5.20;;
69837;SDS011;57135;51.992;4.476;2022-09-09T13:10:15;4.50;;;4.50;;
69837;SDS011;57135;51.992;4.476;2022-09-09T13:12:49;4.18;;;4.18;;
69837;SDS011;57135;51.992;4.476;2022-09-09T13:15:22;3.35;;;3.35;;
69837;SDS011;57135;51.992;4.476;2022-09-09T13:17:52;2.85;;;2.85;;
69837;SDS011;57135;51.992;4.476;2022-09-09T13:20:21;2.63;;;2.63;;
69837;SDS011;57135;51.992;4.476;2022-09-09T13:22:49;2.57;;;2.57;;
69837;SDS011;57135;51.992;4.476;2022-09-09T13:25:24;2.50;;;2.50;;
69837;SDS011;57135;51.992;4.476;2022-09-09T13:30:22;2.61;;;2.61;;
69837;SDS011;57135;51.992;4.476;2022-09-09T13:35:29;2.72;;;2.72;;
69837;SDS011;57135;51.992;4.476;2022-09-09T13:37:55;2.76;;;2.76;;
69837;SDS011;57135;51.992;4.476;2022-09-09T13:40:22;2.94;;;2.94;;
69837;SDS011;57135;51.992;4.476;2022-09-09T13:42:51;2.70;;;2.70;;
69837;SDS011;57135;51.992;4.476;2022-09-09T13:45:22;2.79;;;2.79;;
69837;SDS011;57135;51.992;4.476;2022-09-09T13:47:51;3.33;;;3.33;;
69837;SDS011;57135;51.992;4.476;2022-09-09T13:52:53;3.45;;;3.45;;
69837;SDS011;57135;51.992;4.476;2022-09-09T13:55:23;3.41;;;3.41;;
69837;SDS011;57135;51.992;4.476;2022-09-09T13:57:51;3.52;;;3.52;;
69837;SDS011;57135;51.992;4.476;2022-09-09T14:00:17;2.64;;;2.64;;
69837;SDS011;57135;51.992;4.476;2022-09-09T14:02:43;2.76;;;2.76;;
69837;SDS011;57135;51.992;4.476;2022-09-09T14:05:09;2.37;;;2.37;;
69837;SDS011;57135;51.992;4.476;2022-09-09T14:07:36;2.57;;;2.57;;
69837;SDS011;57135;51.992;4.476;2022-09-09T14:10:04;2.47;;;2.47;;
69837;SDS011;57135;51.992;4.476;2022-09-09T14:12:30;2.21;;;2.21;;
69837;SDS011;57135;51.992;4.476;2022-09-09T14:14:55;1.91;;;1.91;;
69837;SDS011;57135;51.992;4.476;2022-09-09T14:17:21;1.94;;;1.93;;
69837;SDS011;57135;51.992;4.476;2022-09-09T14:19:47;1.89;;;1.88;;
69837;SDS011;57135;51.992;4.476;2022-09-09T14:22:13;2.00;;;2.00;;
69837;SDS011;57135;51.992;4.476;2022-09-09T14:24:38;2.27;;;2.23;;
69837;SDS011;57135;51.992;4.476;2022-09-09T14:27:04;2.38;;;2.27;;
69837;SDS011;57135;51.992;4.476;2022-09-09T14:29:29;2.73;;;2.61;;
69837;SDS011;57135;51.992;4.476;2022-09-09T14:31:54;2.40;;;2.35;;
69837;SDS011;57135;51.992;4.476;2022-09-09T14:34:20;2.67;;;2.47;;
69837;SDS011;57135;51.992;4.476;2022-09-09T14:36:45;2.64;;;2.47;;
69837;SDS011;57135;51.992;4.476;2022-09-09T14:39:12;2.52;;;2.35;;
69837;SDS011;57135;51.992;4.476;2022-09-09T14:41:37;3.26;;;2.95;;
69837;SDS011;57135;51.992;4.476;2022-09-09T14:44:03;2.83;;;2.48;;
69837;SDS011;57135;51.992;4.476;2022-09-09T14:46:28;3.08;;;2.67;;
69837;SDS011;57135;51.992;4.476;2022-09-09T14:48:54;2.81;;;2.46;;
69837;SDS011;57135;51.992;4.476;2022-09-09T14:51:23;2.87;;;2.53;;
69837;SDS011;57135;51.992;4.476;2022-09-09T14:53:53;2.59;;;2.33;;
69837;SDS011;57135;51.992;4.476;2022-09-09T14:56:22;2.38;;;2.18;;
69837;SDS011;57135;51.992;4.476;2022-09-09T14:58:49;2.57;;;2.36;;
69837;SDS011;57135;51.992;4.476;2022-09-09T15:01:17;2.68;;;2.42;;
69837;SDS011;57135;51.992;4.476;2022-09-09T15:03:48;2.76;;;2.44;;
69837;SDS011;57135;51.992;4.476;2022-09-09T15:06:16;2.89;;;2.55;;
69837;SDS011;57135;51.992;4.476;2022-09-09T15:08:42;2.52;;;2.22;;
69837;SDS011;57135;51.992;4.476;2022-09-09T15:11:10;3.07;;;2.63;;
69837;SDS011;57135;51.992;4.476;2022-09-09T15:13:36;2.93;;;2.47;;
69837;SDS011;57135;51.992;4.476;2022-09-09T15:16:13;2.55;;;2.22;;
69837;SDS011;57135;51.992;4.476;2022-09-09T15:18:40;3.13;;;2.70;;
69837;SDS011;57135;51.992;4.476;2022-09-09T15:21:18;2.55;;;2.21;;
69837;SDS011;57135;51.992;4.476;2022-09-09T15:23:45;2.78;;;2.48;;
69837;SDS011;57135;51.992;4.476;2022-09-09T15:26:12;2.64;;;2.37;;
69837;SDS011;57135;51.992;4.476;2022-09-09T15:28:39;2.68;;;2.40;;
69837;SDS011;57135;51.992;4.476;2022-09-09T15:31:15;2.63;;;2.35;;
69837;SDS011;57135;51.992;4.476;2022-09-09T15:38:48;3.40;;;3.14;;
69837;SDS011;57135;51.992;4.476;2022-09-09T15:41:14;3.46;;;3.28;;
69837;SDS011;57135;51.992;4.476;2022-09-09T15:43:44;4.05;;;3.90;;
69837;SDS011;57135;51.992;4.476;2022-09-09T15:48:43;4.80;;;4.75;;
69837;SDS011;57135;51.992;4.476;2022-09-09T15:51:10;4.80;;;4.76;;
69837;SDS011;57135;51.992;4.476;2022-09-09T15:53:39;5.37;;;5.35;;
69837;SDS011;57135;51.992;4.476;2022-09-09T15:56:05;5.76;;;5.76;;
69837;SDS011;57135;51.992;4.476;2022-09-09T15:58:32;5.91;;;5.90;;
69837;SDS011;57135;51.992;4.476;2022-09-09T16:01:16;6.37;;;6.37;;
69837;SDS011;57135;51.992;4.476;2022-09-09T16:03:42;6.91;;;6.91;;
69837;SDS011;57135;51.992;4.476;2022-09-09T16:06:10;7.47;;;7.47;;
69837;SDS011;57135;51.992;4.476;2022-09-09T16:08:37;8.39;;;8.39;;
69837;SDS011;57135;51.992;4.476;2022-09-09T16:11:11;7.97;;;7.97;;
69837;SDS011;57135;51.992;4.476;2022-09-09T16:13:40;7.87;;;7.87;;
69837;SDS011;57135;51.992;4.476;2022-09-09T16:16:07;7.09;;;7.09;;
69837;SDS011;57135;51.992;4.476;2022-09-09T16:18:35;6.78;;;6.78;;
69837;SDS011;57135;51.992;4.476;2022-09-09T16:21:03;6.74;;;6.74;;
69837;SDS011;57135;51.992;4.476;2022-09-09T16:23:30;7.38;;;7.38;;
69837;SDS011;57135;51.992;4.476;2022-09-09T16:25:56;8.32;;;8.32;;
69837;SDS011;57135;51.992;4.476;2022-09-09T16:28:22;8.38;;;8.38;;
69837;SDS011;57135;51.992;4.476;2022-09-09T16:30:48;8.59;;;8.59;;
69837;SDS011;57135;51.992;4.476;2022-09-09T16:33:14;8.02;;;8.02;;
69837;SDS011;57135;51.992;4.476;2022-09-09T16:35:41;7.40;;;7.40;;
69837;SDS011;57135;51.992;4.476;2022-09-09T16:38:07;7.41;;;7.40;;
69837;SDS011;57135;51.992;4.476;2022-09-09T16:40:36;7.20;;;7.20;;
69837;SDS011;57135;51.992;4.476;2022-09-09T16:43:02;6.81;;;6.81;;
69837;SDS011;57135;51.992;4.476;2022-09-09T16:45:31;6.01;;;6.01;;
69837;SDS011;57135;51.992;4.476;2022-09-09T16:47:57;5.34;;;5.34;;
69837;SDS011;57135;51.992;4.476;2022-09-09T16:50:24;4.77;;;4.77;;
69837;SDS011;57135;51.992;4.476;2022-09-09T16:52:51;5.19;;;5.16;;
69837;SDS011;57135;51.992;4.476;2022-09-09T16:55:16;5.46;;;5.45;;
69837;SDS011;57135;51.992;4.476;2022-09-09T16:57:42;5.38;;;5.38;;
69837;SDS011;57135;51.992;4.476;2022-09-09T17:00:07;5.61;;;5.59;;
69837;SDS011;57135;51.992;4.476;2022-09-09T17:02:33;4.82;;;4.82;;
69837;SDS011;57135;51.992;4.476;2022-09-09T17:04:59;5.12;;;5.11;;
69837;SDS011;57135;51.992;4.476;2022-09-09T17:07:24;5.31;;;5.31;;
69837;SDS011;57135;51.992;4.476;2022-09-09T17:09:50;5.95;;;5.92;;
69837;SDS011;57135;51.992;4.476;2022-09-09T17:12:16;6.09;;;6.06;;
69837;SDS011;57135;51.992;4.476;2022-09-09T17:14:42;6.19;;;6.17;;
69837;SDS011;57135;51.992;4.476;2022-09-09T17:17:07;6.20;;;6.20;;
69837;SDS011;57135;51.992;4.476;2022-09-09T17:19:33;6.52;;;6.52;;
69837;SDS011;57135;51.992;4.476;2022-09-09T17:21:58;7.12;;;7.11;;
69837;SDS011;57135;51.992;4.476;2022-09-09T17:24:25;8.68;;;8.61;;